PDT,Max TemperatureF,Mean TemperatureF,Min TemperatureF,Max Dew PointF,MeanDew PointF,Min DewpointF,Max Humidity, Mean Humidity, Min Humidity, Max Sea Level PressureIn, Mean Sea Level PressureIn, Min Sea Level PressureIn, Max VisibilityMiles, Mean VisibilityMiles, Min VisibilityMiles, Max Wind SpeedMPH, Mean Wind SpeedMPH, Max Gust SpeedMPH,PrecipitationIn, CloudCover, Events, WindDirDegrees
2012-8-1,69,58,46,55,51,45,100,78,60,30.24,30.21,30.17,10,10,5,13,5,,0.00,0,,329
2012-8-2,71,62,53,57,53,48,94,77,60,30.21,30.18,30.13,10,10,10,12,4,,0.00,4,,328
2012-8-3,78,63,48,63,55,46,100,77,53,30.16,30.09,30.00,10,8,0,14,3,17,0.00,1,,305
2012-8-4,87,70,53,66,60,54,100,71,45,30.01,29.93,29.84,10,10,6,13,3,,0.00,0,,306
2012-8-5,89,73,57,66,61,55,94,69,43,29.98,29.92,29.89,10,10,5,10,2,,0.00,0,,314
2012-8-6,78,68,59,64,59,55,94,77,54,30.11,30.07,29.99,10,10,10,16,3,,0.00,0,,259
2012-8-7,68,62,55,61,59,54,100,88,78,30.12,30.08,30.05,10,8,1,8,1,,0.00,7,,235
2012-8-8,71,63,55,57,55,52,94,74,53,30.24,30.18,30.09,10,8,2,10,2,,0.00,6,,189
2012-8-9,87,68,48,59,53,46,100,77,38,30.25,30.18,29.87,10,8,0,14,3,16,0.00,1,,307
2012-8-10,73,60,46,59,53,45,100,77,57,30.16,30.11,30.06,10,8,0,12,2,,0.00,1,,299
2012-8-11,78,63,48,61,55,46,100,75,51,30.12,30.06,29.99,10,8,0,14,4,,0.00,1,,308
2012-8-12,82,66,51,64,57,48,94,72,42,30.02,29.98,29.92,10,10,0,13,3,18,0.00,0,,305
2012-8-13,78,64,50,63,53,45,100,71,43,30.05,30.02,29.99,10,9,0,14,3,,0.00,0,,321
2012-8-14,75,64,53,63,57,48,94,78,50,30.03,29.98,29.91,10,10,4,13,4,,0.00,4,,337
2012-8-15,84,68,51,61,55,50,100,69,35,29.99,29.94,29.87,10,8,0,17,3,22,0.00,1,,311
2012-8-16,89,72,55,63,57,54,94,64,33,29.97,29.93,29.88,10,10,10,12,4,,0.00,0,,315
2012-8-17,87,71,55,64,59,54,94,67,40,29.99,29.95,29.91,10,10,4,13,3,,0.00,0,,315
2012-8-18,73,63,53,61,57,52,100,82,65,30.00,29.96,29.89,10,10,0,13,2,16,0.00,2,,285
2012-8-19,69,62,55,59,56,52,94,81,64,30.05,30.03,29.97,10,9,2,10,2,,0.00,7,,322
2012-8-20,75,64,53,55,53,48,94,70,50,30.07,30.03,29.97,10,10,5,13,2,,0.00,3,,319
2012-8-21,69,60,51,54,51,48,94,74,53,30.07,30.02,29.98,10,10,1,14,2,,0.00,6,,314
2012-8-22,69,60,51,52,49,46,88,67,46,30.14,30.10,30.07,10,10,10,12,4,18,0.00,4,,332
2012-8-23,66,57,48,52,47,41,93,69,42,30.12,30.10,30.08,10,10,10,16,5,21,0.00,7,,324
2012-8-24,,,,,,,,,,,,,,,,,,,,,,
2012-8-25,,,,,,,,,,,,,,,,,,,,,,
2012-8-26,,,,,,,,,,,,,,,,,,,,,,
2012-8-27,,,,,,,,,,,,,,,,,,,,,,
2012-8-28,,,,,,,,,,,,,,,,,,,,,,
2012-8-29,,,,,,,,,,,,,,,,,,,,,,
2012-8-30,71,61,51,54,50,45,82,62,43,30.03,29.97,29.92,10,10,10,14,5,,0.00,2,,314
2012-8-31,69,56,42,52,47,39,100,74,46,30.02,29.97,29.95,10,9,0,13,3,,0.00,2,,309